sensor_id;sensor_type;location;lat;lon;timestamp;P1;durP1;ratioP1;P2;durP2;ratioP2
10381;SDS011;11635;53.636;10.120;2023-02-20T00:00:16;6.75;;;2.42;;
10381;SDS011;11635;53.636;10.120;2023-02-20T00:02:43;4.70;;;2.67;;
10381;SDS011;11635;53.636;10.120;2023-02-20T00:05:12;10.13;;;3.22;;
10381;SDS011;11635;53.636;10.120;2023-02-20T00:07:38;6.57;;;3.33;;
10381;SDS011;11635;53.636;10.120;2023-02-20T00:10:05;9.23;;;2.45;;
10381;SDS011;11635;53.636;10.120;2023-02-20T00:12:32;7.43;;;3.08;;
10381;SDS011;11635;53.636;10.120;2023-02-20T00:14:58;5.57;;;2.35;;
10381;SDS011;11635;53.636;10.120;2023-02-20T00:17:24;5.60;;;2.58;;
10381;SDS011;11635;53.636;10.120;2023-02-20T00:19:52;9.48;;;3.00;;
10381;SDS011;11635;53.636;10.120;2023-02-20T00:22:21;7.90;;;3.05;;
10381;SDS011;11635;53.636;10.120;2023-02-20T00:24:47;6.13;;;2.67;;
10381;SDS011;11635;53.636;10.120;2023-02-20T00:27:13;6.72;;;2.58;;
10381;SDS011;11635;53.636;10.120;2023-02-20T00:29:40;7.47;;;3.00;;
10381;SDS011;11635;53.636;10.120;2023-02-20T00:32:06;6.80;;;2.90;;
10381;SDS011;11635;53.636;10.120;2023-02-20T00:34:32;6.82;;;3.35;;
10381;SDS011;11635;53.636;10.120;2023-02-20T00:36:59;7.80;;;3.30;;
10381;SDS011;11635;53.636;10.120;2023-02-20T00:39:26;4.90;;;2.97;;
10381;SDS011;11635;53.636;10.120;2023-02-20T00:41:53;7.50;;;3.15;;
10381;SDS011;11635;53.636;10.120;2023-02-20T00:44:20;8.85;;;3.28;;
10381;SDS011;11635;53.636;10.120;2023-02-20T00:46:46;6.15;;;2.78;;
10381;SDS011;11635;53.636;10.120;2023-02-20T00:49:13;6.85;;;3.53;;
10381;SDS011;11635;53.636;10.120;2023-02-20T00:51:39;5.68;;;3.45;;
10381;SDS011;11635;53.636;10.120;2023-02-20T00:54:06;7.82;;;3.25;;
10381;SDS011;11635;53.636;10.120;2023-02-20T00:56:33;6.22;;;3.25;;
10381;SDS011;11635;53.636;10.120;2023-02-20T00:59:00;6.28;;;3.10;;
10381;SDS011;11635;53.636;10.120;2023-02-20T01:01:26;6.85;;;3.15;;
10381;SDS011;11635;53.636;10.120;2023-02-20T01:03:52;7.00;;;3.10;;
10381;SDS011;11635;53.636;10.120;2023-02-20T01:06:19;6.20;;;3.90;;
10381;SDS011;11635;53.636;10.120;2023-02-20T01:08:45;4.70;;;3.63;;
10381;SDS011;11635;53.636;10.120;2023-02-20T01:11:11;6.45;;;3.42;;
10381;SDS011;11635;53.636;10.120;2023-02-20T01:13:39;8.82;;;3.35;;
10381;SDS011;11635;53.636;10.120;2023-02-20T01:16:05;10.20;;;3.47;;
10381;SDS011;11635;53.636;10.120;2023-02-20T01:18:32;6.72;;;3.15;;
10381;SDS011;11635;53.636;10.120;2023-02-20T01:20:58;3.97;;;3.25;;
10381;SDS011;11635;53.636;10.120;2023-02-20T01:23:25;6.53;;;3.17;;
10381;SDS011;11635;53.636;10.120;2023-02-20T01:25:51;4.63;;;3.00;;
10381;SDS011;11635;53.636;10.120;2023-02-20T01:28:17;6.35;;;3.60;;
10381;SDS011;11635;53.636;10.120;2023-02-20T01:30:45;8.85;;;3.55;;
10381;SDS011;11635;53.636;10.120;2023-02-20T01:33:11;5.90;;;3.08;;
10381;SDS011;11635;53.636;10.120;2023-02-20T01:35:38;5.05;;;2.85;;
10381;SDS011;11635;53.636;10.120;2023-02-20T01:38:04;6.80;;;3.55;;
10381;SDS011;11635;53.636;10.120;2023-02-20T01:40:31;5.93;;;3.40;;
10381;SDS011;11635;53.636;10.120;2023-02-20T01:42:57;7.40;;;3.63;;
10381;SDS011;11635;53.636;10.120;2023-02-20T01:45:28;4.68;;;3.10;;
10381;SDS011;11635;53.636;10.120;2023-02-20T01:47:57;5.82;;;3.13;;
10381;SDS011;11635;53.636;10.120;2023-02-20T01:50:25;5.20;;;3.53;;
10381;SDS011;11635;53.636;10.120;2023-02-20T01:52:53;4.07;;;3.10;;
10381;SDS011;11635;53.636;10.120;2023-02-20T01:55:22;6.15;;;3.58;;
10381;SDS011;11635;53.636;10.120;2023-02-20T01:57:49;5.57;;;3.55;;
10381;SDS011;11635;53.636;10.120;2023-02-20T02:00:17;5.95;;;3.67;;
10381;SDS011;11635;53.636;10.120;2023-02-20T02:02:49;5.75;;;3.50;;
10381;SDS011;11635;53.636;10.120;2023-02-20T02:05:18;7.35;;;3.25;;
10381;SDS011;11635;53.636;10.120;2023-02-20T02:07:44;7.65;;;4.35;;
10381;SDS011;11635;53.636;10.120;2023-02-20T02:10:12;4.47;;;3.38;;
10381;SDS011;11635;53.636;10.120;2023-02-20T02:12:38;4.53;;;3.50;;
10381;SDS011;11635;53.636;10.120;2023-02-20T02:15:12;9.93;;;3.47;;
10381;SDS011;11635;53.636;10.120;2023-02-20T02:17:45;6.07;;;4.03;;
10381;SDS011;11635;53.636;10.120;2023-02-20T02:20:27;6.35;;;3.35;;
10381;SDS011;11635;53.636;10.120;2023-02-20T02:25:59;8.80;;;3.97;;
10381;SDS011;11635;53.636;10.120;2023-02-20T02:28:38;5.55;;;4.00;;
10381;SDS011;11635;53.636;10.120;2023-02-20T02:31:18;8.27;;;4.13;;
10381;SDS011;11635;53.636;10.120;2023-02-20T02:36:42;8.35;;;4.65;;
10381;SDS011;11635;53.636;10.120;2023-02-20T02:39:15;5.07;;;3.53;;
10381;SDS011;11635;53.636;10.120;2023-02-20T02:44:41;5.80;;;4.30;;
10381;SDS011;11635;53.636;10.120;2023-02-20T02:47:20;5.30;;;3.92;;
10381;SDS011;11635;53.636;10.120;2023-02-20T02:49:56;6.20;;;4.82;;
10381;SDS011;11635;53.636;10.120;2023-02-20T02:52:25;6.43;;;5.15;;
10381;SDS011;11635;53.636;10.120;2023-02-20T02:55:13;6.80;;;4.78;;
10381;SDS011;11635;53.636;10.120;2023-02-20T02:57:40;6.35;;;4.72;;
10381;SDS011;11635;53.636;10.120;2023-02-20T03:00:09;8.43;;;4.70;;
10381;SDS011;11635;53.636;10.120;2023-02-20T03:02:39;6.50;;;4.90;;
10381;SDS011;11635;53.636;10.120;2023-02-20T03:05:09;8.10;;;4.85;;
10381;SDS011;11635;53.636;10.120;2023-02-20T03:07:47;7.28;;;5.28;;
10381;SDS011;11635;53.636;10.120;2023-02-20T03:10:16;7.13;;;5.53;;
10381;SDS011;11635;53.636;10.120;2023-02-20T03:13:05;8.38;;;5.32;;
10381;SDS011;11635;53.636;10.120;2023-02-20T03:15:34;7.35;;;5.72;;
10381;SDS011;11635;53.636;10.120;2023-02-20T03:18:07;8.50;;;5.88;;
10381;SDS011;11635;53.636;10.120;2023-02-20T03:20:36;8.27;;;5.85;;
10381;SDS011;11635;53.636;10.120;2023-02-20T03:23:05;9.75;;;5.60;;
10381;SDS011;11635;53.636;10.120;2023-02-20T03:25:35;7.95;;;5.45;;
10381;SDS011;11635;53.636;10.120;2023-02-20T03:28:04;9.93;;;7.30;;
10381;SDS011;11635;53.636;10.120;2023-02-20T03:30:38;10.48;;;6.22;;
10381;SDS011;11635;53.636;10.120;2023-02-20T03:33:11;10.43;;;6.85;;
10381;SDS011;11635;53.636;10.120;2023-02-20T03:35:58;8.75;;;6.07;;
10381;SDS011;11635;53.636;10.120;2023-02-20T03:38:45;8.73;;;6.05;;
10381;SDS011;11635;53.636;10.120;2023-02-20T03:41:30;8.75;;;5.90;;
10381;SDS011;11635;53.636;10.120;2023-02-20T03:44:16;7.93;;;6.50;;
10381;SDS011;11635;53.636;10.120;2023-02-20T03:46:45;10.07;;;6.47;;
10381;SDS011;11635;53.636;10.120;2023-02-20T03:49:18;9.93;;;6.38;;
10381;SDS011;11635;53.636;10.120;2023-02-20T03:51:47;10.48;;;6.55;;
10381;SDS011;11635;53.636;10.120;2023-02-20T03:54:29;9.18;;;6.53;;
10381;SDS011;11635;53.636;10.120;2023-02-20T03:56:59;8.32;;;6.28;;
10381;SDS011;11635;53.636;10.120;2023-02-20T03:59:29;9.60;;;7.05;;
10381;SDS011;11635;53.636;10.120;2023-02-20T04:02:01;8.70;;;6.78;;
10381;SDS011;11635;53.636;10.120;2023-02-20T04:04:29;9.38;;;6.53;;
10381;SDS011;11635;53.636;10.120;2023-02-20T04:06:57;7.88;;;5.32;;
10381;SDS011;11635;53.636;10.120;2023-02-20T04:09:25;11.15;;;7.05;;
10381;SDS011;11635;53.636;10.120;2023-02-20T04:11:56;9.20;;;6.47;;
10381;SDS011;11635;53.636;10.120;2023-02-20T04:14:23;11.05;;;6.35;;
10381;SDS011;11635;53.636;10.120;2023-02-20T04:16:54;11.40;;;7.85;;
10381;SDS011;11635;53.636;10.120;2023-02-20T04:19:21;11.85;;;6.18;;
10381;SDS011;11635;53.636;10.120;2023-02-20T04:21:48;9.02;;;6.35;;
10381;SDS011;11635;53.636;10.120;2023-02-20T04:24:16;8.70;;;6.43;;
10381;SDS011;11635;53.636;10.120;2023-02-20T04:26:44;10.18;;;6.38;;
10381;SDS011;11635;53.636;10.120;2023-02-20T04:29:12;7.90;;;6.38;;
10381;SDS011;11635;53.636;10.120;2023-02-20T04:31:38;8.32;;;6.93;;
10381;SDS011;11635;53.636;10.120;2023-02-20T04:34:05;10.15;;;7.05;;
10381;SDS011;11635;53.636;10.120;2023-02-20T04:36:31;7.68;;;6.75;;
10381;SDS011;11635;53.636;10.120;2023-02-20T04:38:57;11.63;;;6.82;;
10381;SDS011;11635;53.636;10.120;2023-02-20T04:41:24;11.75;;;7.00;;
10381;SDS011;11635;53.636;10.120;2023-02-20T04:43:50;9.35;;;6.50;;
10381;SDS011;11635;53.636;10.120;2023-02-20T04:46:39;9.60;;;6.80;;
10381;SDS011;11635;53.636;10.120;2023-02-20T04:49:05;10.18;;;6.60;;
10381;SDS011;11635;53.636;10.120;2023-02-20T04:51:31;12.10;;;6.68;;
10381;SDS011;11635;53.636;10.120;2023-02-20T04:53:59;9.57;;;7.22;;
10381;SDS011;11635;53.636;10.120;2023-02-20T04:56:26;9.68;;;7.22;;
10381;SDS011;11635;53.636;10.120;2023-02-20T04:58:52;9.02;;;7.28;;
10381;SDS011;11635;53.636;10.120;2023-02-20T05:01:18;9.85;;;7.18;;
10381;SDS011;11635;53.636;10.120;2023-02-20T05:03:46;10.05;;;7.20;;
10381;SDS011;11635;53.636;10.120;2023-02-20T05:06:12;9.57;;;7.22;;
10381;SDS011;11635;53.636;10.120;2023-02-20T05:08:38;15.52;;;9.02;;
10381;SDS011;11635;53.636;10.120;2023-02-20T05:11:05;11.10;;;8.90;;
10381;SDS011;11635;53.636;10.120;2023-02-20T05:13:31;12.50;;;8.75;;
10381;SDS011;11635;53.636;10.120;2023-02-20T05:15:57;10.18;;;7.93;;
10381;SDS011;11635;53.636;10.120;2023-02-20T05:18:24;15.55;;;8.55;;
10381;SDS011;11635;53.636;10.120;2023-02-20T05:20:52;13.30;;;8.35;;
10381;SDS011;11635;53.636;10.120;2023-02-20T05:23:35;12.45;;;9.25;;
10381;SDS011;11635;53.636;10.120;2023-02-20T05:26:02;13.65;;;9.00;;
10381;SDS011;11635;53.636;10.120;2023-02-20T05:28:28;10.48;;;8.48;;
10381;SDS011;11635;53.636;10.120;2023-02-20T05:30:55;12.95;;;9.57;;
10381;SDS011;11635;53.636;10.120;2023-02-20T05:33:21;11.07;;;9.00;;
10381;SDS011;11635;53.636;10.120;2023-02-20T05:35:48;15.02;;;9.07;;
10381;SDS011;11635;53.636;10.120;2023-02-20T05:38:21;12.98;;;9.18;;
10381;SDS011;11635;53.636;10.120;2023-02-20T05:40:48;17.70;;;9.95;;
10381;SDS011;11635;53.636;10.120;2023-02-20T05:43:15;12.45;;;10.10;;
10381;SDS011;11635;53.636;10.120;2023-02-20T05:45:42;12.65;;;9.93;;
10381;SDS011;11635;53.636;10.120;2023-02-20T05:48:11;13.05;;;9.35;;
10381;SDS011;11635;53.636;10.120;2023-02-20T05:50:39;13.85;;;9.80;;
10381;SDS011;11635;53.636;10.120;2023-02-20T05:53:12;13.63;;;9.35;;
10381;SDS011;11635;53.636;10.120;2023-02-20T05:55:39;15.38;;;9.85;;
10381;SDS011;11635;53.636;10.120;2023-02-20T05:58:06;13.70;;;10.50;;
10381;SDS011;11635;53.636;10.120;2023-02-20T06:00:32;16.13;;;10.43;;
10381;SDS011;11635;53.636;10.120;2023-02-20T06:02:58;17.05;;;11.95;;
10381;SDS011;11635;53.636;10.120;2023-02-20T06:05:25;14.23;;;10.48;;
10381;SDS011;11635;53.636;10.120;2023-02-20T06:07:52;15.85;;;10.90;;
10381;SDS011;11635;53.636;10.120;2023-02-20T06:10:18;13.05;;;10.98;;
10381;SDS011;11635;53.636;10.120;2023-02-20T06:12:46;16.90;;;11.38;;
10381;SDS011;11635;53.636;10.120;2023-02-20T06:15:13;17.30;;;10.55;;
10381;SDS011;11635;53.636;10.120;2023-02-20T06:17:39;15.68;;;9.82;;
10381;SDS011;11635;53.636;10.120;2023-02-20T06:20:06;13.98;;;10.20;;
10381;SDS011;11635;53.636;10.120;2023-02-20T06:22:32;17.67;;;12.75;;
10381;SDS011;11635;53.636;10.120;2023-02-20T06:24:58;13.98;;;11.00;;
10381;SDS011;11635;53.636;10.120;2023-02-20T06:27:25;14.18;;;10.93;;
10381;SDS011;11635;53.636;10.120;2023-02-20T06:29:52;16.10;;;11.55;;
10381;SDS011;11635;53.636;10.120;2023-02-20T06:32:19;15.90;;;12.02;;
10381;SDS011;11635;53.636;10.120;2023-02-20T06:34:46;18.83;;;11.50;;
10381;SDS011;11635;53.636;10.120;2023-02-20T06:37:14;13.85;;;10.77;;
10381;SDS011;11635;53.636;10.120;2023-02-20T06:39:42;18.77;;;12.25;;
10381;SDS011;11635;53.636;10.120;2023-02-20T06:42:13;17.75;;;13.38;;
10381;SDS011;11635;53.636;10.120;2023-02-20T06:44:41;18.08;;;11.40;;
10381;SDS011;11635;53.636;10.120;2023-02-20T06:47:11;18.30;;;11.38;;
10381;SDS011;11635;53.636;10.120;2023-02-20T06:49:38;18.40;;;11.95;;
10381;SDS011;11635;53.636;10.120;2023-02-20T06:52:07;19.77;;;11.88;;
10381;SDS011;11635;53.636;10.120;2023-02-20T06:54:34;17.65;;;11.95;;
10381;SDS011;11635;53.636;10.120;2023-02-20T06:57:01;16.45;;;12.05;;
10381;SDS011;11635;53.636;10.120;2023-02-20T06:59:27;18.52;;;12.68;;
10381;SDS011;11635;53.636;10.120;2023-02-20T07:01:53;17.33;;;12.93;;
10381;SDS011;11635;53.636;10.120;2023-02-20T07:04:22;20.55;;;11.98;;
10381;SDS011;11635;53.636;10.120;2023-02-20T07:06:50;21.65;;;12.23;;
10381;SDS011;11635;53.636;10.120;2023-02-20T07:09:17;17.42;;;12.90;;
10381;SDS011;11635;53.636;10.120;2023-02-20T07:11:44;20.15;;;12.90;;
10381;SDS011;11635;53.636;10.120;2023-02-20T07:14:14;19.75;;;13.43;;
10381;SDS011;11635;53.636;10.120;2023-02-20T07:16:46;17.45;;;12.43;;
10381;SDS011;11635;53.636;10.120;2023-02-20T07:19:13;22.00;;;13.70;;
10381;SDS011;11635;53.636;10.120;2023-02-20T07:21:43;19.05;;;13.57;;
10381;SDS011;11635;53.636;10.120;2023-02-20T07:24:12;22.65;;;14.40;;
10381;SDS011;11635;53.636;10.120;2023-02-20T07:26:40;24.52;;;14.40;;
10381;SDS011;11635;53.636;10.120;2023-02-20T07:29:08;21.17;;;14.48;;
10381;SDS011;11635;53.636;10.120;2023-02-20T07:31:35;19.92;;;14.77;;
10381;SDS011;11635;53.636;10.120;2023-02-20T07:34:03;18.58;;;14.73;;
10381;SDS011;11635;53.636;10.120;2023-02-20T07:36:32;23.90;;;15.55;;
10381;SDS011;11635;53.636;10.120;2023-02-20T07:39:04;22.58;;;15.77;;
10381;SDS011;11635;53.636;10.120;2023-02-20T07:41:33;22.15;;;15.68;;
10381;SDS011;11635;53.636;10.120;2023-02-20T07:44:05;21.02;;;14.98;;
10381;SDS011;11635;53.636;10.120;2023-02-20T07:46:33;20.58;;;14.75;;
10381;SDS011;11635;53.636;10.120;2023-02-20T07:49:02;25.08;;;15.82;;
10381;SDS011;11635;53.636;10.120;2023-02-20T07:51:29;21.55;;;16.58;;
10381;SDS011;11635;53.636;10.120;2023-02-20T07:54:00;24.00;;;16.60;;
10381;SDS011;11635;53.636;10.120;2023-02-20T07:56:29;22.70;;;16.80;;
10381;SDS011;11635;53.636;10.120;2023-02-20T07:58:57;24.83;;;17.65;;
10381;SDS011;11635;53.636;10.120;2023-02-20T08:01:25;25.73;;;19.00;;
10381;SDS011;11635;53.636;10.120;2023-02-20T08:03:53;24.38;;;17.17;;
10381;SDS011;11635;53.636;10.120;2023-02-20T08:06:24;21.85;;;17.75;;
10381;SDS011;11635;53.636;10.120;2023-02-20T08:08:53;25.95;;;18.27;;
10381;SDS011;11635;53.636;10.120;2023-02-20T08:11:21;27.67;;;18.02;;
10381;SDS011;11635;53.636;10.120;2023-02-20T08:13:52;26.90;;;18.83;;
10381;SDS011;11635;53.636;10.120;2023-02-20T08:16:20;27.02;;;20.15;;
10381;SDS011;11635;53.636;10.120;2023-02-20T08:18:48;26.77;;;18.90;;
10381;SDS011;11635;53.636;10.120;2023-02-20T08:21:17;28.17;;;19.08;;
10381;SDS011;11635;53.636;10.120;2023-02-20T08:23:51;24.27;;;19.08;;
10381;SDS011;11635;53.636;10.120;2023-02-20T08:26:19;30.45;;;19.33;;
10381;SDS011;11635;53.636;10.120;2023-02-20T08:28:46;31.95;;;19.90;;
10381;SDS011;11635;53.636;10.120;2023-02-20T08:31:21;31.48;;;21.27;;
10381;SDS011;11635;53.636;10.120;2023-02-20T08:33:51;32.22;;;20.08;;
10381;SDS011;11635;53.636;10.120;2023-02-20T08:36:19;29.98;;;20.40;;
10381;SDS011;11635;53.636;10.120;2023-02-20T08:38:47;30.83;;;20.85;;
10381;SDS011;11635;53.636;10.120;2023-02-20T08:41:15;32.63;;;21.92;;
10381;SDS011;11635;53.636;10.120;2023-02-20T08:43:44;31.50;;;21.75;;
10381;SDS011;11635;53.636;10.120;2023-02-20T08:46:12;30.33;;;20.30;;
10381;SDS011;11635;53.636;10.120;2023-02-20T08:48:44;29.83;;;21.23;;
10381;SDS011;11635;53.636;10.120;2023-02-20T08:51:20;31.40;;;20.85;;
10381;SDS011;11635;53.636;10.120;2023-02-20T08:53:48;31.63;;;21.95;;
10381;SDS011;11635;53.636;10.120;2023-02-20T08:56:16;29.60;;;21.25;;
10381;SDS011;11635;53.636;10.120;2023-02-20T08:58:43;31.35;;;22.35;;
10381;SDS011;11635;53.636;10.120;2023-02-20T09:01:16;34.30;;;21.83;;
10381;SDS011;11635;53.636;10.120;2023-02-20T09:03:45;27.90;;;21.50;;
10381;SDS011;11635;53.636;10.120;2023-02-20T09:06:18;33.60;;;22.40;;
10381;SDS011;11635;53.636;10.120;2023-02-20T09:08:50;32.22;;;23.10;;
10381;SDS011;11635;53.636;10.120;2023-02-20T09:11:19;28.48;;;20.58;;
10381;SDS011;11635;53.636;10.120;2023-02-20T09:13:46;34.70;;;22.33;;
10381;SDS011;11635;53.636;10.120;2023-02-20T09:16:15;34.25;;;23.50;;
10381;SDS011;11635;53.636;10.120;2023-02-20T09:18:43;34.58;;;23.98;;
10381;SDS011;11635;53.636;10.120;2023-02-20T09:21:12;33.30;;;22.55;;
10381;SDS011;11635;53.636;10.120;2023-02-20T09:23:39;36.55;;;22.92;;
10381;SDS011;11635;53.636;10.120;2023-02-20T09:26:07;30.20;;;21.77;;
10381;SDS011;11635;53.636;10.120;2023-02-20T09:28:34;32.33;;;21.45;;
10381;SDS011;11635;53.636;10.120;2023-02-20T09:31:05;38.03;;;23.20;;
10381;SDS011;11635;53.636;10.120;2023-02-20T09:33:34;35.67;;;22.55;;
10381;SDS011;11635;53.636;10.120;2023-02-20T09:36:01;32.97;;;24.08;;
10381;SDS011;11635;53.636;10.120;2023-02-20T09:38:30;33.63;;;23.08;;
10381;SDS011;11635;53.636;10.120;2023-02-20T09:40:58;35.00;;;23.35;;
10381;SDS011;11635;53.636;10.120;2023-02-20T09:43:35;33.60;;;22.80;;
10381;SDS011;11635;53.636;10.120;2023-02-20T09:46:05;35.85;;;22.55;;
10381;SDS011;11635;53.636;10.120;2023-02-20T09:48:35;39.92;;;23.40;;
10381;SDS011;11635;53.636;10.120;2023-02-20T09:51:06;40.40;;;23.83;;
10381;SDS011;11635;53.636;10.120;2023-02-20T09:53:40;36.15;;;22.83;;
10381;SDS011;11635;53.636;10.120;2023-02-20T09:56:09;38.08;;;23.98;;
10381;SDS011;11635;53.636;10.120;2023-02-20T09:58:39;39.00;;;24.17;;
10381;SDS011;11635;53.636;10.120;2023-02-20T10:01:08;39.03;;;23.13;;
10381;SDS011;11635;53.636;10.120;2023-02-20T10:03:38;36.38;;;22.75;;
10381;SDS011;11635;53.636;10.120;2023-02-20T10:06:17;45.53;;;23.88;;
10381;SDS011;11635;53.636;10.120;2023-02-20T10:08:47;44.22;;;24.08;;
10381;SDS011;11635;53.636;10.120;2023-02-20T10:11:17;42.63;;;23.90;;
10381;SDS011;11635;53.636;10.120;2023-02-20T10:13:51;36.30;;;24.92;;
10381;SDS011;11635;53.636;10.120;2023-02-20T10:16:26;41.33;;;24.10;;
10381;SDS011;11635;53.636;10.120;2023-02-20T10:18:58;38.70;;;25.58;;
10381;SDS011;11635;53.636;10.120;2023-02-20T10:21:33;44.10;;;24.27;;
10381;SDS011;11635;53.636;10.120;2023-02-20T10:24:05;36.25;;;24.17;;
10381;SDS011;11635;53.636;10.120;2023-02-20T10:26:36;38.05;;;23.10;;
10381;SDS011;11635;53.636;10.120;2023-02-20T10:29:09;39.20;;;22.70;;
10381;SDS011;11635;53.636;10.120;2023-02-20T10:31:40;34.78;;;22.13;;
10381;SDS011;11635;53.636;10.120;2023-02-20T10:34:11;33.85;;;22.42;;
10381;SDS011;11635;53.636;10.120;2023-02-20T10:36:41;34.47;;;22.05;;
10381;SDS011;11635;53.636;10.120;2023-02-20T10:39:12;34.08;;;21.38;;
10381;SDS011;11635;53.636;10.120;2023-02-20T10:41:41;29.30;;;20.60;;
10381;SDS011;11635;53.636;10.120;2023-02-20T10:44:16;26.08;;;19.02;;
10381;SDS011;11635;53.636;10.120;2023-02-20T10:46:47;30.80;;;18.23;;
10381;SDS011;11635;53.636;10.120;2023-02-20T10:49:15;23.02;;;16.85;;
10381;SDS011;11635;53.636;10.120;2023-02-20T10:51:58;30.17;;;15.93;;
10381;SDS011;11635;53.636;10.120;2023-02-20T10:54:32;23.73;;;14.45;;
10381;SDS011;11635;53.636;10.120;2023-02-20T10:57:12;21.27;;;14.40;;
10381;SDS011;11635;53.636;10.120;2023-02-20T10:59:50;21.23;;;12.23;;
10381;SDS011;11635;53.636;10.120;2023-02-20T11:02:27;19.05;;;12.73;;
10381;SDS011;11635;53.636;10.120;2023-02-20T11:05:02;19.60;;;12.07;;
10381;SDS011;11635;53.636;10.120;2023-02-20T11:07:43;16.48;;;10.27;;
10381;SDS011;11635;53.636;10.120;2023-02-20T11:10:12;19.02;;;10.63;;
10381;SDS011;11635;53.636;10.120;2023-02-20T11:12:42;18.00;;;10.23;;
10381;SDS011;11635;53.636;10.120;2023-02-20T11:15:11;17.73;;;10.90;;
10381;SDS011;11635;53.636;10.120;2023-02-20T11:17:42;17.13;;;10.07;;
10381;SDS011;11635;53.636;10.120;2023-02-20T11:22:51;14.00;;;9.15;;
10381;SDS011;11635;53.636;10.120;2023-02-20T11:25:20;20.20;;;8.45;;
10381;SDS011;11635;53.636;10.120;2023-02-20T11:27:57;18.75;;;8.90;;
10381;SDS011;11635;53.636;10.120;2023-02-20T11:30:29;14.45;;;8.30;;
10381;SDS011;11635;53.636;10.120;2023-02-20T11:33:03;10.90;;;8.07;;
10381;SDS011;11635;53.636;10.120;2023-02-20T11:35:32;14.02;;;7.38;;
10381;SDS011;11635;53.636;10.120;2023-02-20T11:38:18;13.90;;;6.85;;
10381;SDS011;11635;53.636;10.120;2023-02-20T11:41:00;11.60;;;7.07;;
10381;SDS011;11635;53.636;10.120;2023-02-20T11:43:30;9.05;;;6.65;;
10381;SDS011;11635;53.636;10.120;2023-02-20T11:46:05;15.23;;;7.03;;
10381;SDS011;11635;53.636;10.120;2023-02-20T11:48:32;11.10;;;6.55;;
10381;SDS011;11635;53.636;10.120;2023-02-20T11:51:00;13.50;;;6.80;;
10381;SDS011;11635;53.636;10.120;2023-02-20T11:53:28;7.38;;;5.80;;
10381;SDS011;11635;53.636;10.120;2023-02-20T11:56:08;12.63;;;5.72;;
10381;SDS011;11635;53.636;10.120;2023-02-20T11:58:35;13.85;;;6.57;;
10381;SDS011;11635;53.636;10.120;2023-02-20T12:01:05;13.15;;;6.07;;
10381;SDS011;11635;53.636;10.120;2023-02-20T12:03:32;14.02;;;5.85;;
10381;SDS011;11635;53.636;10.120;2023-02-20T12:08:49;11.85;;;5.53;;
10381;SDS011;11635;53.636;10.120;2023-02-20T12:11:21;11.05;;;5.85;;
10381;SDS011;11635;53.636;10.120;2023-02-20T12:13:49;8.68;;;5.07;;
10381;SDS011;11635;53.636;10.120;2023-02-20T12:16:25;11.60;;;5.10;;
10381;SDS011;11635;53.636;10.120;2023-02-20T12:18:55;8.43;;;5.20;;
10381;SDS011;11635;53.636;10.120;2023-02-20T12:21:26;9.07;;;4.90;;
10381;SDS011;11635;53.636;10.120;2023-02-20T12:24:01;10.70;;;4.82;;
10381;SDS011;11635;53.636;10.120;2023-02-20T12:26:36;18.67;;;5.95;;
10381;SDS011;11635;53.636;10.120;2023-02-20T12:29:12;8.13;;;4.50;;
10381;SDS011;11635;53.636;10.120;2023-02-20T12:31:44;9.40;;;4.80;;
10381;SDS011;11635;53.636;10.120;2023-02-20T12:34:19;9.77;;;4.95;;
10381;SDS011;11635;53.636;10.120;2023-02-20T12:36:50;9.18;;;4.97;;
10381;SDS011;11635;53.636;10.120;2023-02-20T12:39:20;8.57;;;4.80;;
10381;SDS011;11635;53.636;10.120;2023-02-20T12:41:58;11.63;;;4.55;;
10381;SDS011;11635;53.636;10.120;2023-02-20T12:44:39;7.25;;;4.57;;
10381;SDS011;11635;53.636;10.120;2023-02-20T12:47:15;8.52;;;4.55;;
10381;SDS011;11635;53.636;10.120;2023-02-20T12:49:45;8.68;;;4.80;;
10381;SDS011;11635;53.636;10.120;2023-02-20T12:54:59;6.13;;;4.13;;
10381;SDS011;11635;53.636;10.120;2023-02-20T12:57:33;8.43;;;4.13;;
10381;SDS011;11635;53.636;10.120;2023-02-20T13:00:06;9.98;;;4.28;;
10381;SDS011;11635;53.636;10.120;2023-02-20T13:02:34;6.13;;;4.07;;
10381;SDS011;11635;53.636;10.120;2023-02-20T13:05:03;12.27;;;4.40;;
10381;SDS011;11635;53.636;10.120;2023-02-20T13:07:32;10.23;;;4.38;;
10381;SDS011;11635;53.636;10.120;2023-02-20T13:10:01;10.25;;;3.88;;
10381;SDS011;11635;53.636;10.120;2023-02-20T13:12:29;5.07;;;3.92;;
10381;SDS011;11635;53.636;10.120;2023-02-20T13:14:59;11.63;;;4.22;;
10381;SDS011;11635;53.636;10.120;2023-02-20T13:17:31;7.05;;;3.95;;
10381;SDS011;11635;53.636;10.120;2023-02-20T13:20:05;10.90;;;4.55;;
10381;SDS011;11635;53.636;10.120;2023-02-20T13:22:35;10.02;;;4.80;;
10381;SDS011;11635;53.636;10.120;2023-02-20T13:27:59;6.57;;;4.40;;
10381;SDS011;11635;53.636;10.120;2023-02-20T13:30:26;8.82;;;4.38;;
10381;SDS011;11635;53.636;10.120;2023-02-20T13:33:07;7.18;;;4.28;;
10381;SDS011;11635;53.636;10.120;2023-02-20T13:35:43;8.80;;;4.00;;
10381;SDS011;11635;53.636;10.120;2023-02-20T13:38:12;6.32;;;3.95;;
10381;SDS011;11635;53.636;10.120;2023-02-20T13:40:42;7.65;;;4.05;;
10381;SDS011;11635;53.636;10.120;2023-02-20T13:43:24;8.10;;;3.92;;
10381;SDS011;11635;53.636;10.120;2023-02-20T13:48:38;7.32;;;4.32;;
10381;SDS011;11635;53.636;10.120;2023-02-20T13:53:52;12.40;;;5.00;;
10381;SDS011;11635;53.636;10.120;2023-02-20T13:56:21;10.25;;;4.43;;
10381;SDS011;11635;53.636;10.120;2023-02-20T13:58:48;9.13;;;4.32;;
10381;SDS011;11635;53.636;10.120;2023-02-20T14:01:15;11.27;;;4.15;;
10381;SDS011;11635;53.636;10.120;2023-02-20T14:03:42;6.10;;;4.22;;
10381;SDS011;11635;53.636;10.120;2023-02-20T14:06:09;7.75;;;4.10;;
10381;SDS011;11635;53.636;10.120;2023-02-20T14:08:36;10.00;;;4.88;;
10381;SDS011;11635;53.636;10.120;2023-02-20T14:11:05;9.55;;;5.13;;
10381;SDS011;11635;53.636;10.120;2023-02-20T14:13:32;10.23;;;5.13;;
10381;SDS011;11635;53.636;10.120;2023-02-20T14:16:00;8.93;;;4.07;;
10381;SDS011;11635;53.636;10.120;2023-02-20T14:18:27;7.15;;;4.72;;
10381;SDS011;11635;53.636;10.120;2023-02-20T14:20:55;9.93;;;4.63;;
10381;SDS011;11635;53.636;10.120;2023-02-20T14:23:24;8.70;;;4.55;;
10381;SDS011;11635;53.636;10.120;2023-02-20T14:25:52;8.90;;;4.28;;
10381;SDS011;11635;53.636;10.120;2023-02-20T14:28:18;13.98;;;5.05;;
10381;SDS011;11635;53.636;10.120;2023-02-20T14:30:45;6.28;;;4.25;;
10381;SDS011;11635;53.636;10.120;2023-02-20T14:33:20;11.02;;;5.00;;
10381;SDS011;11635;53.636;10.120;2023-02-20T14:35:58;11.07;;;4.70;;
10381;SDS011;11635;53.636;10.120;2023-02-20T14:38:31;9.82;;;4.38;;
10381;SDS011;11635;53.636;10.120;2023-02-20T14:40:59;9.77;;;4.25;;
10381;SDS011;11635;53.636;10.120;2023-02-20T14:43:26;11.40;;;4.88;;
10381;SDS011;11635;53.636;10.120;2023-02-20T14:45:57;16.20;;;5.18;;
10381;SDS011;11635;53.636;10.120;2023-02-20T14:48:26;10.63;;;4.50;;
10381;SDS011;11635;53.636;10.120;2023-02-20T14:53:44;9.05;;;4.85;;
10381;SDS011;11635;53.636;10.120;2023-02-20T14:56:12;10.55;;;4.70;;
10381;SDS011;11635;53.636;10.120;2023-02-20T14:58:38;11.75;;;4.63;;
10381;SDS011;11635;53.636;10.120;2023-02-20T15:01:15;13.50;;;4.85;;
10381;SDS011;11635;53.636;10.120;2023-02-20T15:03:43;9.25;;;4.40;;